^^
Station Historical Data
Daily Summary for May 7, 2017 Units:  Metric    English   Both
« Previous Day
Next Day »
Daily Weekly Monthly Yearly Custom
  High: Low: Average:
Temperature: 28.8 °C 11.1 °C 18.6 °C
Dew Point: 8.4 °C 4.2 °C 6.4 °C
Humidity: 75% 22% 50%
Wind Speed: 14.3km/h 0km/h 1.8km/h
Wind Gust: 17.7km/h - -
Wind- - WSW
Pressure: 1016.8 hPa 1012.1 hPa -
Precipitation: 0 mm    
Historical Graphs
 
 
Tabular Data for May 7, 2017
Time Temperature Dew Point Pressure Wind Wind Speed Wind Gust Humidity Rainfall Rate (Hourly) solar Conditions
00:00 15.7 °C 7.5 °C 1015.1 hPa SW 6.4 km/h 8 km/h 58% 0 mm 0.0 W/m2
00:05 15.6 °C 7.1 °C 1015.5 hPa SW 7.9 km/h 8 km/h 57% 0 mm 0.0 W/m2
00:10 15.6 °C 7.1 °C 1015.1 hPa SW 6.4 km/h 9.7 km/h 57% 0 mm 0.0 W/m2
00:16 15.5 °C 7.3 °C 1015.1 hPa SW 7.9 km/h 9.7 km/h 58% 0 mm 0.0 W/m2
00:21 15.4 °C 7.2 °C 1015.1 hPa SW 6.4 km/h 9.7 km/h 58% 0 mm 0.0 W/m2
00:31 15.3 °C 7.1 °C 1015.1 hPa SW 6.4 km/h 6.4 km/h 58% 0 mm 0.0 W/m2
00:36 15.2 °C 7 °C 1015.1 hPa SW 4.7 km/h 8 km/h 58% 0 mm 0.0 W/m2
00:41 15 °C 6.8 °C 1015.1 hPa SW 6.4 km/h 6.4 km/h 58% 0 mm 0.0 W/m2
00:46 14.8 °C 6.9 °C 1015.1 hPa SW 6.4 km/h 6.4 km/h 59% 0 mm 0.0 W/m2
00:51 14.7 °C 6.8 °C 1015.1 hPa SW 4.7 km/h 6.4 km/h 59% 0 mm 0.0 W/m2
00:56 14.6 °C 6.7 °C 1015.1 hPa SW 1.4 km/h 4.8 km/h 59% 0 mm 0.0 W/m2
01:01 14.5 °C 6.8 °C 1015.1 hPa Calm     60% 0 mm 0.0 W/m2
01:06 14.3 °C 6.6 °C 1015.1 hPa Calm     60% 0 mm 0.0 W/m2
01:12 14.2 °C 6.5 °C 1015.1 hPa Calm     60% 0 mm 0.0 W/m2
01:17 14.1 °C 6.7 °C 1015.1 hPa Calm     61% 0 mm 0.0 W/m2
01:22 14 °C 6.6 °C 1015.1 hPa Calm     61% 0 mm 0.0 W/m2
01:27 13.9 °C 6.7 °C 1015.1 hPa Calm     62% 0 mm 0.0 W/m2
01:32 13.7 °C 6.5 °C 1015.1 hPa Calm     62% 0 mm 0.0 W/m2
01:37 13.6 °C 6.7 °C 1015.1 hPa Calm     63% 0 mm 0.0 W/m2
01:43 13.4 °C 6.5 °C 1014.8 hPa Calm     63% 0 mm 0.0 W/m2
01:48 13.3 °C 6.6 °C 1014.8 hPa Calm     64% 0 mm 0.0 W/m2
01:58 13.2 °C 6.8 °C 1014.8 hPa Calm     65% 0 mm 0.0 W/m2
02:03 13.1 °C 7.3 °C 1014.8 hPa Calm     68% 0 mm 0.0 W/m2
02:08 12.9 °C 6.5 °C 1014.8 hPa Calm     65% 0 mm 0.0 W/m2
02:15 12.8 °C 6.6 °C 1014.8 hPa Calm     66% 0 mm 0.0 W/m2
02:21 12.8 °C 6.6 °C 1014.8 hPa Calm     66% 0 mm 0.0 W/m2
02:29 12.7 °C 6.5 °C 1014.8 hPa Calm     66% 0 mm 0.0 W/m2
02:34 12.6 °C 6.6 °C 1014.8 hPa Calm     67% 0 mm 0.0 W/m2
02:39 12.5 °C 6.5 °C 1014.8 hPa Calm     67% 0 mm 0.0 W/m2
02:44 12.4 °C 6.7 °C 1014.8 hPa Calm     68% 0 mm 0.0 W/m2
02:50 12.4 °C 6.7 °C 1014.8 hPa Calm     68% 0 mm 0.0 W/m2
02:55 12.4 °C 6.9 °C 1014.4 hPa Calm     69% 0 mm 0.0 W/m2
03:00 12.5 °C 7.2 °C 1014.4 hPa Calm     70% 0 mm 0.0 W/m2
03:06 12.6 °C 7.3 °C 1014.4 hPa Calm     70% 0 mm 0.0 W/m2
03:11 12.7 °C 7.4 °C 1014.4 hPa Calm     70% 0 mm 0.0 W/m2
03:21 13 °C 7.4 °C 1014.4 hPa Calm     69% 0 mm 0.0 W/m2
03:27 13.3 °C 7.5 °C 1014.4 hPa Calm     68% 0 mm 0.0 W/m2
03:32 13.5 °C 7.7 °C 1014.4 hPa Calm     68% 0 mm 0.0 W/m2
03:37 13.5 °C 7.5 °C 1014.4 hPa Calm     67% 0 mm 0.0 W/m2
03:42 13.5 °C 7.5 °C 1014.4 hPa Calm     67% 0 mm 0.0 W/m2
03:47 13.3 °C 7.3 °C 1014.4 hPa Calm     67% 0 mm 0.0 W/m2
03:53 13.2 °C 7.4 °C 1014.4 hPa Calm     68% 0 mm 0.0 W/m2
04:03 12.8 °C 7.3 °C 1014.4 hPa Calm     69% 0 mm 0.0 W/m2
04:08 12.8 °C 7.3 °C 1014.4 hPa Calm     69% 0 mm 0.0 W/m2
04:18 12.7 °C 7.2 °C 1014.8 hPa Calm     69% 0 mm 0.0 W/m2
04:24 12.5 °C 7 °C 1014.4 hPa Calm     69% 0 mm 0.0 W/m2
04:29 12.2 °C 6.7 °C 1014.4 hPa Calm     69% 0 mm 0.0 W/m2
04:34 12.1 °C 6.8 °C 1014.4 hPa Calm     70% 0 mm 0.0 W/m2
04:39 11.9 °C 6.8 °C 1014.4 hPa Calm     71% 0 mm 0.0 W/m2
04:44 11.9 °C 6.8 °C 1014.4 hPa Calm     71% 0 mm 0.0 W/m2
04:49 11.9 °C 6.8 °C 1014.4 hPa Calm     71% 0 mm 0.0 W/m2
04:54 11.8 °C 6.5 °C 1014.4 hPa Calm     70% 0 mm 0.0 W/m2
05:00 11.7 °C 6.6 °C 1014.8 hPa Calm     71% 0 mm 0.0 W/m2
05:05 11.7 °C 6.8 °C 1014.8 hPa Calm     72% 0 mm 0.0 W/m2
05:10 11.6 °C 6.7 °C 1014.8 hPa Calm     72% 0 mm 0.0 W/m2
05:20 11.5 °C 6.4 °C 1014.8 hPa Calm     71% 0 mm 0.0 W/m2
05:31 11.3 °C 6.4 °C 1015.1 hPa Calm     72% 0 mm 0.0 W/m2
05:36 11.2 °C 6.5 °C 1015.1 hPa Calm     73% 0 mm 0.0 W/m2
05:41 11.3 °C 6.6 °C 1015.1 hPa Calm     73% 0 mm 0.0 W/m2
05:46 11.3 °C 6.6 °C 1015.1 hPa Calm     73% 0 mm 0.0 W/m2
05:51 11.2 °C 6.5 °C 1015.1 hPa Calm     73% 0 mm 0.0 W/m2
05:56 11.2 °C 6.5 °C 1015.1 hPa Calm     73% 0 mm 0.0 W/m2
06:01 11.1 °C 6.6 °C 1015.1 hPa Calm     74% 0 mm 0.0 W/m2
06:12 11.2 °C 6.9 °C 1015.1 hPa Calm     75% 0 mm 0.0 W/m2
06:33 11.4 °C 6.7 °C 1015.1 hPa Calm     73% 0 mm 12.0 W/m2
06:38 11.3 °C 6.6 °C 1015.1 hPa Calm     73% 0 mm 14.0 W/m2
06:43 11.2 °C 6.3 °C 1015.1 hPa Calm     72% 0 mm 14.0 W/m2
06:48 11.2 °C 6.5 °C 1015.5 hPa Calm     73% 0 mm 18.0 W/m2
06:58 11.2 °C 6.7 °C 1015.5 hPa Calm     74% 0 mm 30.0 W/m2
07:05 11.3 °C 6.8 °C 1015.5 hPa Calm     74% 0 mm 77.0 W/m2
07:11 11.6 °C 7.1 °C 1015.5 hPa Calm     74% 0 mm 97.0 W/m2
07:18 12.5 °C 7.6 °C 1015.8 hPa Calm     72% 0 mm 137.0 W/m2
07:38 13.9 °C 7.9 °C 1015.8 hPa Calm     67% 0 mm 202.0 W/m2
07:47 14.6 °C 7.9 °C 1016.1 hPa Calm     64% 0 mm 246.0 W/m2
07:55 14.9 °C 7.9 °C 1016.1 hPa Calm     63% 0 mm 255.0 W/m2
09:11 17.4 °C 8 °C 1016.8 hPa Calm     54% 0 mm 480.0 W/m2
09:32 18.6 °C 8 °C 1016.8 hPa Calm     50% 0 mm 515.0 W/m2
09:46 19.3 °C 8 °C 1016.8 hPa Calm     48% 0 mm 550.0 W/m2
09:52 20.1 °C 8.1 °C 1016.5 hPa Calm     46% 0 mm 568.0 W/m2
10:07 20.8 °C 8.4 °C 1016.5 hPa Calm   1.6 km/h 45% 0 mm 585.0 W/m2
10:16 21.4 °C 8.3 °C 1016.5 hPa Calm     43% 0 mm 304.0 W/m2
10:23 21.9 °C 8.4 °C 1016.1 hPa Calm     42% 0 mm 202.0 W/m2
11:41 23.7 °C 8.1 °C 1015.1 hPa Calm   11.3 km/h 37% 0 mm 501.0 W/m2
11:55 24.2 °C 8.2 °C 1014.8 hPa Calm     36% 0 mm 448.0 W/m2
12:06 24.9 °C 8 °C 1014.4 hPa SW 6.4 km/h 9.7 km/h 34% 0 mm 650.0 W/m2
12:19 25.9 °C 7.9 °C 1014.4 hPa Calm   12.9 km/h 32% 0 mm 830.0 W/m2
12:28 26.1 °C 7.6 °C 1014.1 hPa Calm   11.3 km/h 31% 0 mm 731.0 W/m2
12:31 26.2 °C 7.7 °C 1014.1 hPa WSW 1.4 km/h 8 km/h 31% 0 mm 691.0 W/m2
12:36 26.3 °C 7.8 °C 1013.8 hPa Calm   9.7 km/h 31% 0 mm 700.0 W/m2
12:51 26.8 °C 7.3 °C 1013.8 hPa WSW 4.7 km/h 12.9 km/h 29% 0 mm 654.0 W/m2
12:56 26.7 °C 7.7 °C 1013.4 hPa Calm   6.4 km/h 30% 0 mm 643.0 W/m2
13:13 26.9 °C 6.8 °C 1013.4 hPa Calm   6.4 km/h 28% 0 mm 605.0 W/m2
13:19 27.4 °C 7.3 °C 1013.1 hPa Calm   11.3 km/h 28% 0 mm 598.0 W/m2
13:28 27.5 °C 6.8 °C 1013.1 hPa Calm     27% 0 mm 591.0 W/m2
13:42 28.1 °C 6.2 °C 1012.8 hPa West 13 km/h 13 km/h 25% 0 mm 568.0 W/m2
14:02 28.2 °C 5.1 °C 1012.8 hPa Calm   11.3 km/h 23% 0 mm 538.0 W/m2
14:10 28.2 °C 5.1 °C 1012.8 hPa Calm   11.3 km/h 23% 0 mm 538.0 W/m2
14:22 28.2 °C 5.1 °C 1012.4 hPa West 4.7 km/h 8 km/h 23% 0 mm 206.0 W/m2
14:40 28.3 °C 5.2 °C 1012.4 hPa Calm     23% 0 mm 561.0 W/m2
14:49 28.7 °C 4.9 °C 1012.4 hPa Calm     22% 0 mm 158.0 W/m2
14:53 28.7 °C 4.9 °C 1012.1 hPa West 1.4 km/h 11.3 km/h 22% 0 mm 519.0 W/m2
15:09 28.8 °C 5 °C 1012.1 hPa Calm   9.7 km/h 22% 0 mm 387.0 W/m2
15:15 28.7 °C 5.5 °C 1012.1 hPa Calm   9.7 km/h 23% 0 mm 364.0 W/m2
15:19 28.7 °C 5.5 °C 1012.1 hPa West 6.4 km/h 6.4 km/h 23% 0 mm 332.0 W/m2
15:26 28.8 °C 5.6 °C 1012.1 hPa Calm   16.1 km/h 23% 0 mm 311.0 W/m2
15:29 28.8 °C 5.6 °C 1012.1 hPa Calm     23% 0 mm 294.0 W/m2
15:39 28.6 °C 5.4 °C 1012.1 hPa Calm     23% 0 mm 251.0 W/m2
15:54 28.4 °C 5.3 °C 1012.1 hPa Calm     23% 0 mm 199.0 W/m2
16:10 28.3 °C 5.8 °C 1012.1 hPa Calm     24% 0 mm 142.0 W/m2
16:30 28.2 °C 5.7 °C 1012.1 hPa Calm     24% 0 mm 79.0 W/m2
16:46 27.7 °C 5.3 °C 1012.1 hPa Calm     24% 0 mm 21.0 W/m2
17:02 27.4 °C 5 °C 1012.1 hPa Calm   8 km/h 24% 0 mm 12.0 W/m2
17:15 27.1 °C 5.4 °C 1012.1 hPa Calm     25% 0 mm 0.0 W/m2
17:22 26.9 °C 5.2 °C 1012.1 hPa Calm     25% 0 mm 0.0 W/m2
17:34 26.6 °C 5 °C 1012.1 hPa Calm     25% 0 mm 0.0 W/m2
17:40 26.3 °C 4.7 °C 1012.1 hPa Calm     25% 0 mm 0.0 W/m2
17:48 25.7 °C 4.8 °C 1012.1 hPa Calm     26% 0 mm 0.0 W/m2
17:56 25.3 °C 4.4 °C 1012.4 hPa Calm     26% 0 mm 0.0 W/m2
18:04 24.8 °C 4.5 °C 1012.4 hPa Calm     27% 0 mm 0.0 W/m2
18:09 24.4 °C 4.2 °C 1012.8 hPa Calm     27% 0 mm 0.0 W/m2
18:19 24.1 °C 4.5 °C 1012.8 hPa Calm     28% 0 mm 0.0 W/m2
18:34 23.9 °C 4.8 °C 1012.8 hPa Calm     29% 0 mm 0.0 W/m2
18:50 24.7 °C 6 °C 1013.4 hPa West 9.7 km/h 16.1 km/h 30% 0 mm 0.0 W/m2
19:05 24.6 °C 5.9 °C 1013.4 hPa West 9.7 km/h 17.7 km/h 30% 0 mm 0.0 W/m2
19:20 24.2 °C 6 °C 1013.4 hPa West 13 km/h 14.5 km/h 31% 0 mm 0.0 W/m2
19:30 24 °C 5.8 °C 1013.8 hPa West 14.3 km/h 17.7 km/h 31% 0 mm 0.0 W/m2
19:40 23.9 °C 5.7 °C 1013.8 hPa West 7.9 km/h 11.3 km/h 31% 0 mm 0.0 W/m2
19:55 23.6 °C 5.5 °C 1013.8 hPa West 7.9 km/h 14.5 km/h 31% 0 mm 0.0 W/m2
20:05 23.7 °C 5.6 °C 1014.1 hPa West 11.1 km/h 17.7 km/h 31% 0 mm 0.0 W/m2
20:10 23.4 °C 5.8 °C 1014.1 hPa West 9.7 km/h 12.9 km/h 32% 0 mm 0.0 W/m2
20:25 23.1 °C 5 °C 1014.1 hPa West 13 km/h 14.5 km/h 31% 0 mm 0.0 W/m2
20:46 23.1 °C 5 °C 1014.4 hPa West 4.7 km/h 12.9 km/h 31% 0 mm 0.0 W/m2
21:01 22.8 °C 4.8 °C 1014.4 hPa West 7.9 km/h 9.7 km/h 31% 0 mm 0.0 W/m2
21:15 22.7 °C 5.2 °C 1014.4 hPa West 9.7 km/h 12.9 km/h 32% 0 mm 0.0 W/m2
21:21 22.5 °C 5.4 °C 1014.4 hPa West 6.4 km/h 11.3 km/h 33% 0 mm 0.0 W/m2
21:40 22.1 °C 5.1 °C 1014.1 hPa West 7.9 km/h 9.7 km/h 33% 0 mm 0.0 W/m2
21:46 21.8 °C 4.8 °C 1014.1 hPa West 6.4 km/h 11.3 km/h 33% 0 mm 0.0 W/m2
21:54 21.7 °C 4.7 °C 1014.1 hPa West 3.2 km/h 6.4 km/h 33% 0 mm 0.0 W/m2
22:04 21.4 °C 4.5 °C 1014.1 hPa Calm   4.8 km/h 33% 0 mm 0.0 W/m2
22:14 21.3 °C 4.4 °C 1014.1 hPa Calm     33% 0 mm 0.0 W/m2
Canyon Roadhouse, Fishriver Canyon, Namibia
Compliments of Weather Underground - 2.25 mb